CheckWX is a tool to help pilots better visualize weather data.  It is not intended as a substitute for an official pre-flight weather briefing.

10:46:47 UTC

KLIT TAF
Bill and Hillary Clinton National / Adams Field Airport
Little Rock, Arkansas, USA
KLIT 171002Z 1710/1806 VRB05KT P6SM SKC TEMPO 1710/1714 5SM BR FM171500 11006KT P6SM SKC

Sep-17@
10:00 UTC

Sep-17 @ 10:00 UTC

Sep-17@
15:00 UTC

Sep-17 @ 15:00 UTC

KLIT 171002Z 1710/1806 VRB05KT P6SM SKC
Wind
  • Variable at 5 KTS
Cloud Levels
  • Clear skies

Sep-17@
10:00 UTC

Sep-17 @ 10:00 UTC

Sep-17@
14:00 UTC

Sep-17 @ 14:00 UTC

TEMPO 1710/1714 5SM BR

Temporary

Temporary Changes expected for less than half the time period

Conditions
Mist

Sep-17@
15:00 UTC

Sep-17 @ 15:00 UTC

Sep-18@
06:00 UTC

Sep-18 @ 06:00 UTC

FM171500 11006KT P6SM SKC

From

From Standard forecast or significant change

Wind
  • 110° at 6 KTS
Cloud Levels
  • Clear skies